sensor_id;sensor_type;location;lat;lon;timestamp;P1;durP1;ratioP1;P2;durP2;ratioP2
43327;SDS011;28923;45.412;10.852;2024-03-25T00:00:26;2.55;;;1.65;;
43327;SDS011;28923;45.412;10.852;2024-03-25T00:02:51;1.75;;;1.45;;
43327;SDS011;28923;45.412;10.852;2024-03-25T00:05:17;1.42;;;1.33;;
43327;SDS011;28923;45.412;10.852;2024-03-25T00:07:48;2.45;;;1.30;;
43327;SDS011;28923;45.412;10.852;2024-03-25T00:10:14;1.63;;;1.35;;
43327;SDS011;28923;45.412;10.852;2024-03-25T00:12:39;2.08;;;1.20;;
43327;SDS011;28923;45.412;10.852;2024-03-25T00:15:05;2.92;;;1.52;;
43327;SDS011;28923;45.412;10.852;2024-03-25T00:17:30;3.03;;;1.30;;
43327;SDS011;28923;45.412;10.852;2024-03-25T00:19:56;2.08;;;1.17;;
43327;SDS011;28923;45.412;10.852;2024-03-25T00:22:21;1.40;;;1.27;;
43327;SDS011;28923;45.412;10.852;2024-03-25T00:24:47;1.92;;;1.10;;
43327;SDS011;28923;45.412;10.852;2024-03-25T00:27:13;1.88;;;1.20;;
43327;SDS011;28923;45.412;10.852;2024-03-25T00:29:38;1.45;;;1.20;;
43327;SDS011;28923;45.412;10.852;2024-03-25T00:32:04;1.50;;;1.10;;
43327;SDS011;28923;45.412;10.852;2024-03-25T00:34:30;1.67;;;1.02;;
43327;SDS011;28923;45.412;10.852;2024-03-25T00:36:56;1.73;;;1.17;;
43327;SDS011;28923;45.412;10.852;2024-03-25T00:39:21;2.08;;;1.00;;
43327;SDS011;28923;45.412;10.852;2024-03-25T00:41:47;1.33;;;1.10;;
43327;SDS011;28923;45.412;10.852;2024-03-25T00:44:13;0.95;;;0.90;;
43327;SDS011;28923;45.412;10.852;2024-03-25T00:46:38;1.52;;;1.17;;
43327;SDS011;28923;45.412;10.852;2024-03-25T00:49:05;1.60;;;1.02;;
43327;SDS011;28923;45.412;10.852;2024-03-25T00:51:30;2.63;;;1.58;;
43327;SDS011;28923;45.412;10.852;2024-03-25T00:53:56;2.30;;;1.17;;
43327;SDS011;28923;45.412;10.852;2024-03-25T00:56:21;1.30;;;1.20;;
43327;SDS011;28923;45.412;10.852;2024-03-25T00:58:47;1.33;;;0.95;;
43327;SDS011;28923;45.412;10.852;2024-03-25T01:01:12;1.52;;;1.20;;
43327;SDS011;28923;45.412;10.852;2024-03-25T01:03:39;1.60;;;1.40;;
43327;SDS011;28923;45.412;10.852;2024-03-25T01:06:04;1.17;;;1.08;;
43327;SDS011;28923;45.412;10.852;2024-03-25T01:08:30;1.15;;;1.05;;
43327;SDS011;28923;45.412;10.852;2024-03-25T01:10:55;1.90;;;1.15;;
43327;SDS011;28923;45.412;10.852;2024-03-25T01:13:21;1.30;;;1.00;;
43327;SDS011;28923;45.412;10.852;2024-03-25T01:15:46;1.05;;;0.90;;
43327;SDS011;28923;45.412;10.852;2024-03-25T01:18:12;1.50;;;1.10;;
43327;SDS011;28923;45.412;10.852;2024-03-25T01:20:37;1.63;;;1.10;;
43327;SDS011;28923;45.412;10.852;2024-03-25T01:23:03;1.20;;;1.10;;
43327;SDS011;28923;45.412;10.852;2024-03-25T01:25:30;1.20;;;1.00;;
43327;SDS011;28923;45.412;10.852;2024-03-25T01:27:55;1.40;;;1.10;;
43327;SDS011;28923;45.412;10.852;2024-03-25T01:30:20;1.25;;;1.15;;
43327;SDS011;28923;45.412;10.852;2024-03-25T01:32:46;2.00;;;1.02;;
43327;SDS011;28923;45.412;10.852;2024-03-25T01:35:15;1.20;;;1.02;;
43327;SDS011;28923;45.412;10.852;2024-03-25T01:37:41;1.13;;;1.05;;
43327;SDS011;28923;45.412;10.852;2024-03-25T01:40:06;1.20;;;1.08;;
43327;SDS011;28923;45.412;10.852;2024-03-25T01:42:32;1.25;;;1.10;;
43327;SDS011;28923;45.412;10.852;2024-03-25T01:44:58;1.50;;;1.00;;
43327;SDS011;28923;45.412;10.852;2024-03-25T01:47:24;1.02;;;0.88;;
43327;SDS011;28923;45.412;10.852;2024-03-25T01:49:49;1.00;;;0.90;;
43327;SDS011;28923;45.412;10.852;2024-03-25T01:52:19;0.95;;;0.80;;
43327;SDS011;28923;45.412;10.852;2024-03-25T01:54:45;0.98;;;0.80;;
43327;SDS011;28923;45.412;10.852;2024-03-25T01:57:10;1.20;;;0.93;;
43327;SDS011;28923;45.412;10.852;2024-03-25T01:59:36;1.40;;;1.05;;
43327;SDS011;28923;45.412;10.852;2024-03-25T02:02:01;2.28;;;0.95;;
43327;SDS011;28923;45.412;10.852;2024-03-25T02:04:27;0.90;;;0.90;;
43327;SDS011;28923;45.412;10.852;2024-03-25T02:06:53;2.55;;;0.88;;
43327;SDS011;28923;45.412;10.852;2024-03-25T02:09:20;0.93;;;0.82;;
43327;SDS011;28923;45.412;10.852;2024-03-25T02:11:46;1.75;;;0.80;;
43327;SDS011;28923;45.412;10.852;2024-03-25T02:14:12;1.10;;;0.90;;
43327;SDS011;28923;45.412;10.852;2024-03-25T02:16:37;2.13;;;0.90;;
43327;SDS011;28923;45.412;10.852;2024-03-25T02:19:03;1.30;;;0.90;;
43327;SDS011;28923;45.412;10.852;2024-03-25T02:21:28;0.65;;;0.65;;
43327;SDS011;28923;45.412;10.852;2024-03-25T02:23:56;1.10;;;1.00;;
43327;SDS011;28923;45.412;10.852;2024-03-25T02:26:22;1.63;;;0.90;;
43327;SDS011;28923;45.412;10.852;2024-03-25T02:28:48;1.38;;;1.10;;
43327;SDS011;28923;45.412;10.852;2024-03-25T02:31:14;1.55;;;1.00;;
43327;SDS011;28923;45.412;10.852;2024-03-25T02:33:39;1.27;;;0.80;;
43327;SDS011;28923;45.412;10.852;2024-03-25T02:36:04;3.15;;;0.90;;
43327;SDS011;28923;45.412;10.852;2024-03-25T02:38:30;1.00;;;0.90;;
43327;SDS011;28923;45.412;10.852;2024-03-25T02:40:57;1.73;;;0.88;;
43327;SDS011;28923;45.412;10.852;2024-03-25T02:43:23;1.52;;;1.10;;
43327;SDS011;28923;45.412;10.852;2024-03-25T02:45:48;1.50;;;1.02;;
43327;SDS011;28923;45.412;10.852;2024-03-25T02:48:14;0.70;;;0.65;;
43327;SDS011;28923;45.412;10.852;2024-03-25T02:50:39;1.00;;;0.95;;
43327;SDS011;28923;45.412;10.852;2024-03-25T02:53:04;0.98;;;0.95;;
43327;SDS011;28923;45.412;10.852;2024-03-25T02:55:30;3.05;;;0.90;;
43327;SDS011;28923;45.412;10.852;2024-03-25T02:57:55;1.10;;;0.90;;
43327;SDS011;28923;45.412;10.852;2024-03-25T03:00:21;0.90;;;0.80;;
43327;SDS011;28923;45.412;10.852;2024-03-25T03:02:46;1.10;;;0.90;;
43327;SDS011;28923;45.412;10.852;2024-03-25T03:05:11;0.90;;;0.70;;
43327;SDS011;28923;45.412;10.852;2024-03-25T03:07:37;1.52;;;0.88;;
43327;SDS011;28923;45.412;10.852;2024-03-25T03:10:02;0.77;;;0.70;;
43327;SDS011;28923;45.412;10.852;2024-03-25T03:12:28;0.75;;;0.75;;
43327;SDS011;28923;45.412;10.852;2024-03-25T03:14:53;1.08;;;0.70;;
43327;SDS011;28923;45.412;10.852;2024-03-25T03:17:19;0.77;;;0.77;;
43327;SDS011;28923;45.412;10.852;2024-03-25T03:19:44;1.33;;;0.80;;
43327;SDS011;28923;45.412;10.852;2024-03-25T03:22:10;0.73;;;0.70;;
43327;SDS011;28923;45.412;10.852;2024-03-25T03:24:35;1.10;;;0.82;;
43327;SDS011;28923;45.412;10.852;2024-03-25T03:27:01;0.65;;;0.65;;
43327;SDS011;28923;45.412;10.852;2024-03-25T03:29:26;0.80;;;0.73;;
43327;SDS011;28923;45.412;10.852;2024-03-25T03:31:51;1.08;;;0.63;;
43327;SDS011;28923;45.412;10.852;2024-03-25T03:34:17;0.85;;;0.60;;
43327;SDS011;28923;45.412;10.852;2024-03-25T03:36:42;0.68;;;0.60;;
43327;SDS011;28923;45.412;10.852;2024-03-25T03:39:07;0.60;;;0.60;;
43327;SDS011;28923;45.412;10.852;2024-03-25T03:41:35;0.82;;;0.80;;
43327;SDS011;28923;45.412;10.852;2024-03-25T03:44:01;0.60;;;0.50;;
43327;SDS011;28923;45.412;10.852;2024-03-25T03:46:27;0.80;;;0.70;;
43327;SDS011;28923;45.412;10.852;2024-03-25T03:48:52;1.98;;;0.60;;
43327;SDS011;28923;45.412;10.852;2024-03-25T03:51:17;0.75;;;0.75;;
43327;SDS011;28923;45.412;10.852;2024-03-25T03:53:43;0.85;;;0.50;;
43327;SDS011;28923;45.412;10.852;2024-03-25T03:56:08;0.60;;;0.60;;
43327;SDS011;28923;45.412;10.852;2024-03-25T03:58:34;1.05;;;0.55;;
43327;SDS011;28923;45.412;10.852;2024-03-25T04:01:00;0.95;;;0.70;;
43327;SDS011;28923;45.412;10.852;2024-03-25T04:03:25;0.60;;;0.60;;
43327;SDS011;28923;45.412;10.852;2024-03-25T04:05:51;0.60;;;0.60;;
43327;SDS011;28923;45.412;10.852;2024-03-25T04:08:16;0.82;;;0.50;;
43327;SDS011;28923;45.412;10.852;2024-03-25T04:10:43;0.50;;;0.50;;
43327;SDS011;28923;45.412;10.852;2024-03-25T04:13:09;0.75;;;0.50;;
43327;SDS011;28923;45.412;10.852;2024-03-25T04:15:34;1.40;;;0.40;;
43327;SDS011;28923;45.412;10.852;2024-03-25T04:18:00;0.50;;;0.40;;
43327;SDS011;28923;45.412;10.852;2024-03-25T04:20:28;0.60;;;0.60;;
43327;SDS011;28923;45.412;10.852;2024-03-25T04:22:54;0.50;;;0.50;;
43327;SDS011;28923;45.412;10.852;2024-03-25T04:25:20;0.38;;;0.35;;
43327;SDS011;28923;45.412;10.852;2024-03-25T04:27:46;0.50;;;0.50;;
43327;SDS011;28923;45.412;10.852;2024-03-25T04:30:11;0.90;;;0.70;;
43327;SDS011;28923;45.412;10.852;2024-03-25T04:32:37;0.90;;;0.55;;
43327;SDS011;28923;45.412;10.852;2024-03-25T04:35:02;0.50;;;0.40;;
43327;SDS011;28923;45.412;10.852;2024-03-25T04:37:28;0.60;;;0.47;;
43327;SDS011;28923;45.412;10.852;2024-03-25T04:39:54;0.65;;;0.50;;
43327;SDS011;28923;45.412;10.852;2024-03-25T04:42:20;0.65;;;0.57;;
43327;SDS011;28923;45.412;10.852;2024-03-25T04:44:46;0.90;;;0.50;;
43327;SDS011;28923;45.412;10.852;2024-03-25T04:47:11;0.52;;;0.50;;
43327;SDS011;28923;45.412;10.852;2024-03-25T04:49:37;0.73;;;0.70;;
43327;SDS011;28923;45.412;10.852;2024-03-25T04:52:03;0.45;;;0.45;;
43327;SDS011;28923;45.412;10.852;2024-03-25T04:54:29;0.82;;;0.50;;
43327;SDS011;28923;45.412;10.852;2024-03-25T04:56:54;0.65;;;0.52;;
43327;SDS011;28923;45.412;10.852;2024-03-25T04:59:20;0.60;;;0.50;;
43327;SDS011;28923;45.412;10.852;2024-03-25T05:01:46;0.40;;;0.40;;
43327;SDS011;28923;45.412;10.852;2024-03-25T05:04:11;0.32;;;0.32;;
43327;SDS011;28923;45.412;10.852;2024-03-25T05:06:37;0.80;;;0.60;;
43327;SDS011;28923;45.412;10.852;2024-03-25T05:09:02;0.35;;;0.35;;
43327;SDS011;28923;45.412;10.852;2024-03-25T05:11:28;0.70;;;0.40;;
43327;SDS011;28923;45.412;10.852;2024-03-25T05:13:53;0.40;;;0.40;;
43327;SDS011;28923;45.412;10.852;2024-03-25T05:16:18;0.40;;;0.40;;
43327;SDS011;28923;45.412;10.852;2024-03-25T05:18:44;0.50;;;0.50;;
43327;SDS011;28923;45.412;10.852;2024-03-25T05:21:10;0.47;;;0.40;;
43327;SDS011;28923;45.412;10.852;2024-03-25T05:23:35;0.50;;;0.50;;
43327;SDS011;28923;45.412;10.852;2024-03-25T05:26:01;0.50;;;0.40;;
43327;SDS011;28923;45.412;10.852;2024-03-25T05:28:26;0.40;;;0.40;;
43327;SDS011;28923;45.412;10.852;2024-03-25T05:30:51;0.38;;;0.38;;
43327;SDS011;28923;45.412;10.852;2024-03-25T05:33:17;1.45;;;0.47;;
43327;SDS011;28923;45.412;10.852;2024-03-25T05:35:42;0.50;;;0.30;;
43327;SDS011;28923;45.412;10.852;2024-03-25T05:38:08;0.20;;;0.20;;
43327;SDS011;28923;45.412;10.852;2024-03-25T05:40:33;0.30;;;0.30;;
43327;SDS011;28923;45.412;10.852;2024-03-25T05:42:59;1.15;;;0.50;;
43327;SDS011;28923;45.412;10.852;2024-03-25T05:45:24;0.75;;;0.43;;
43327;SDS011;28923;45.412;10.852;2024-03-25T05:47:50;0.40;;;0.40;;
43327;SDS011;28923;45.412;10.852;2024-03-25T05:50:15;0.25;;;0.25;;
43327;SDS011;28923;45.412;10.852;2024-03-25T05:52:41;0.40;;;0.40;;
43327;SDS011;28923;45.412;10.852;2024-03-25T05:55:07;0.55;;;0.35;;
43327;SDS011;28923;45.412;10.852;2024-03-25T05:57:32;0.65;;;0.38;;
43327;SDS011;28923;45.412;10.852;2024-03-25T05:59:58;0.38;;;0.38;;
43327;SDS011;28923;45.412;10.852;2024-03-25T06:02:23;1.48;;;0.50;;
43327;SDS011;28923;45.412;10.852;2024-03-25T06:04:49;0.75;;;0.30;;
43327;SDS011;28923;45.412;10.852;2024-03-25T06:07:14;1.38;;;0.40;;
43327;SDS011;28923;45.412;10.852;2024-03-25T06:09:40;3.58;;;0.40;;
43327;SDS011;28923;45.412;10.852;2024-03-25T06:12:05;3.95;;;0.55;;
43327;SDS011;28923;45.412;10.852;2024-03-25T06:14:32;2.65;;;0.80;;
43327;SDS011;28923;45.412;10.852;2024-03-25T06:16:57;3.10;;;0.98;;
43327;SDS011;28923;45.412;10.852;2024-03-25T06:19:23;5.85;;;1.10;;
43327;SDS011;28923;45.412;10.852;2024-03-25T06:21:48;9.93;;;1.20;;
43327;SDS011;28923;45.412;10.852;2024-03-25T06:24:14;6.55;;;1.15;;
43327;SDS011;28923;45.412;10.852;2024-03-25T06:26:39;11.60;;;1.30;;
43327;SDS011;28923;45.412;10.852;2024-03-25T06:29:05;7.25;;;1.05;;
43327;SDS011;28923;45.412;10.852;2024-03-25T06:31:31;6.85;;;1.52;;
43327;SDS011;28923;45.412;10.852;2024-03-25T06:34:15;2.67;;;0.90;;
43327;SDS011;28923;45.412;10.852;2024-03-25T06:36:43;6.38;;;1.15;;
43327;SDS011;28923;45.412;10.852;2024-03-25T06:39:10;4.70;;;0.88;;
43327;SDS011;28923;45.412;10.852;2024-03-25T06:41:35;3.70;;;1.00;;
43327;SDS011;28923;45.412;10.852;2024-03-25T06:44:01;5.70;;;1.08;;
43327;SDS011;28923;45.412;10.852;2024-03-25T06:46:26;5.63;;;1.17;;
43327;SDS011;28923;45.412;10.852;2024-03-25T06:48:52;4.65;;;1.10;;
43327;SDS011;28923;45.412;10.852;2024-03-25T06:51:17;5.63;;;1.10;;
43327;SDS011;28923;45.412;10.852;2024-03-25T06:53:43;6.93;;;1.33;;
43327;SDS011;28923;45.412;10.852;2024-03-25T06:56:08;7.38;;;0.85;;
43327;SDS011;28923;45.412;10.852;2024-03-25T06:58:34;2.20;;;0.90;;
43327;SDS011;28923;45.412;10.852;2024-03-25T07:01:06;2.30;;;0.60;;
43327;SDS011;28923;45.412;10.852;2024-03-25T07:03:32;1.73;;;0.60;;
43327;SDS011;28923;45.412;10.852;2024-03-25T07:05:58;6.63;;;0.90;;
43327;SDS011;28923;45.412;10.852;2024-03-25T07:08:26;4.18;;;0.90;;
43327;SDS011;28923;45.412;10.852;2024-03-25T07:10:52;4.88;;;1.08;;
43327;SDS011;28923;45.412;10.852;2024-03-25T07:13:18;6.07;;;0.93;;
43327;SDS011;28923;45.412;10.852;2024-03-25T07:15:45;4.15;;;0.80;;
43327;SDS011;28923;45.412;10.852;2024-03-25T07:18:10;8.20;;;0.90;;
43327;SDS011;28923;45.412;10.852;2024-03-25T07:20:41;2.47;;;0.98;;
43327;SDS011;28923;45.412;10.852;2024-03-25T07:23:06;5.70;;;0.90;;
43327;SDS011;28923;45.412;10.852;2024-03-25T07:25:32;5.68;;;1.13;;
43327;SDS011;28923;45.412;10.852;2024-03-25T07:27:58;6.68;;;1.08;;
43327;SDS011;28923;45.412;10.852;2024-03-25T07:30:23;3.70;;;1.20;;
43327;SDS011;28923;45.412;10.852;2024-03-25T07:32:56;7.57;;;1.60;;
43327;SDS011;28923;45.412;10.852;2024-03-25T07:35:22;6.32;;;1.80;;
43327;SDS011;28923;45.412;10.852;2024-03-25T07:37:47;4.35;;;1.02;;
43327;SDS011;28923;45.412;10.852;2024-03-25T07:40:16;10.45;;;1.65;;
43327;SDS011;28923;45.412;10.852;2024-03-25T07:42:41;7.75;;;1.63;;
43327;SDS011;28923;45.412;10.852;2024-03-25T07:45:07;13.43;;;1.77;;
43327;SDS011;28923;45.412;10.852;2024-03-25T07:47:33;5.93;;;1.40;;
43327;SDS011;28923;45.412;10.852;2024-03-25T07:49:58;8.90;;;1.60;;
43327;SDS011;28923;45.412;10.852;2024-03-25T07:52:24;8.20;;;1.50;;
43327;SDS011;28923;45.412;10.852;2024-03-25T07:54:50;10.82;;;1.48;;
43327;SDS011;28923;45.412;10.852;2024-03-25T07:57:16;6.15;;;1.30;;
43327;SDS011;28923;45.412;10.852;2024-03-25T07:59:41;8.50;;;1.33;;
43327;SDS011;28923;45.412;10.852;2024-03-25T08:02:06;9.50;;;2.00;;
43327;SDS011;28923;45.412;10.852;2024-03-25T08:04:32;5.40;;;1.45;;
43327;SDS011;28923;45.412;10.852;2024-03-25T08:06:57;8.20;;;1.67;;
43327;SDS011;28923;45.412;10.852;2024-03-25T08:09:23;4.93;;;1.40;;
43327;SDS011;28923;45.412;10.852;2024-03-25T08:11:48;12.13;;;1.55;;
43327;SDS011;28923;45.412;10.852;2024-03-25T08:14:14;3.75;;;1.00;;
43327;SDS011;28923;45.412;10.852;2024-03-25T08:16:40;7.20;;;1.80;;
43327;SDS011;28923;45.412;10.852;2024-03-25T08:19:06;5.55;;;1.30;;
43327;SDS011;28923;45.412;10.852;2024-03-25T08:21:31;5.20;;;1.20;;
43327;SDS011;28923;45.412;10.852;2024-03-25T08:23:57;5.18;;;1.42;;
43327;SDS011;28923;45.412;10.852;2024-03-25T08:26:22;5.65;;;1.13;;
43327;SDS011;28923;45.412;10.852;2024-03-25T08:28:48;9.63;;;1.42;;
43327;SDS011;28923;45.412;10.852;2024-03-25T08:31:16;5.50;;;1.40;;
43327;SDS011;28923;45.412;10.852;2024-03-25T08:33:42;4.53;;;1.45;;
43327;SDS011;28923;45.412;10.852;2024-03-25T08:36:08;5.00;;;1.10;;
43327;SDS011;28923;45.412;10.852;2024-03-25T08:38:33;4.50;;;1.17;;
43327;SDS011;28923;45.412;10.852;2024-03-25T08:40:59;6.88;;;1.50;;
43327;SDS011;28923;45.412;10.852;2024-03-25T08:43:24;6.65;;;1.45;;
43327;SDS011;28923;45.412;10.852;2024-03-25T08:45:50;2.63;;;1.10;;
43327;SDS011;28923;45.412;10.852;2024-03-25T08:48:15;3.78;;;1.33;;
43327;SDS011;28923;45.412;10.852;2024-03-25T08:50:41;1.95;;;0.85;;
43327;SDS011;28923;45.412;10.852;2024-03-25T08:53:07;3.92;;;1.23;;
43327;SDS011;28923;45.412;10.852;2024-03-25T08:55:33;3.83;;;1.50;;
43327;SDS011;28923;45.412;10.852;2024-03-25T08:57:59;3.60;;;1.13;;
43327;SDS011;28923;45.412;10.852;2024-03-25T09:00:27;8.30;;;1.73;;
43327;SDS011;28923;45.412;10.852;2024-03-25T09:02:53;4.63;;;1.08;;
43327;SDS011;28923;45.412;10.852;2024-03-25T09:05:19;2.38;;;1.30;;
43327;SDS011;28923;45.412;10.852;2024-03-25T09:07:45;3.97;;;1.00;;
43327;SDS011;28923;45.412;10.852;2024-03-25T09:10:10;2.67;;;0.85;;
43327;SDS011;28923;45.412;10.852;2024-03-25T09:13:14;3.20;;;0.70;;
43327;SDS011;28923;45.412;10.852;2024-03-25T09:15:40;4.70;;;1.13;;
43327;SDS011;28923;45.412;10.852;2024-03-25T09:18:05;3.38;;;1.00;;
43327;SDS011;28923;45.412;10.852;2024-03-25T09:20:30;2.88;;;0.95;;
43327;SDS011;28923;45.412;10.852;2024-03-25T09:22:56;1.42;;;0.90;;
43327;SDS011;28923;45.412;10.852;2024-03-25T09:25:22;1.08;;;0.73;;
43327;SDS011;28923;45.412;10.852;2024-03-25T09:27:48;2.20;;;0.82;;
43327;SDS011;28923;45.412;10.852;2024-03-25T09:30:14;1.63;;;0.80;;
43327;SDS011;28923;45.412;10.852;2024-03-25T09:32:40;1.42;;;0.90;;
43327;SDS011;28923;45.412;10.852;2024-03-25T09:35:06;2.30;;;1.00;;
43327;SDS011;28923;45.412;10.852;2024-03-25T09:37:31;1.83;;;0.95;;
43327;SDS011;28923;45.412;10.852;2024-03-25T09:39:57;1.63;;;0.90;;
43327;SDS011;28923;45.412;10.852;2024-03-25T09:42:27;2.05;;;0.85;;
43327;SDS011;28923;45.412;10.852;2024-03-25T09:44:56;2.33;;;0.77;;
43327;SDS011;28923;45.412;10.852;2024-03-25T09:47:22;3.10;;;0.80;;
43327;SDS011;28923;45.412;10.852;2024-03-25T09:49:49;2.03;;;1.00;;
43327;SDS011;28923;45.412;10.852;2024-03-25T09:52:14;1.48;;;0.80;;
43327;SDS011;28923;45.412;10.852;2024-03-25T09:54:40;1.67;;;0.88;;
43327;SDS011;28923;45.412;10.852;2024-03-25T09:57:06;2.85;;;0.98;;
43327;SDS011;28923;45.412;10.852;2024-03-25T09:59:33;1.83;;;0.82;;
43327;SDS011;28923;45.412;10.852;2024-03-25T10:01:58;1.45;;;0.73;;
43327;SDS011;28923;45.412;10.852;2024-03-25T10:04:24;1.42;;;0.57;;
43327;SDS011;28923;45.412;10.852;2024-03-25T10:06:50;1.40;;;0.60;;
43327;SDS011;28923;45.412;10.852;2024-03-25T10:09:18;2.22;;;0.85;;
43327;SDS011;28923;45.412;10.852;2024-03-25T10:11:46;2.88;;;0.70;;
43327;SDS011;28923;45.412;10.852;2024-03-25T10:14:12;1.13;;;0.65;;
43327;SDS011;28923;45.412;10.852;2024-03-25T10:16:37;1.75;;;0.70;;
43327;SDS011;28923;45.412;10.852;2024-03-25T10:19:02;3.67;;;0.90;;
43327;SDS011;28923;45.412;10.852;2024-03-25T10:21:28;3.10;;;0.93;;
43327;SDS011;28923;45.412;10.852;2024-03-25T10:23:54;0.88;;;0.70;;
43327;SDS011;28923;45.412;10.852;2024-03-25T10:26:33;1.02;;;0.70;;
43327;SDS011;28923;45.412;10.852;2024-03-25T10:29:07;1.52;;;0.60;;
43327;SDS011;28923;45.412;10.852;2024-03-25T10:31:32;1.02;;;0.60;;
43327;SDS011;28923;45.412;10.852;2024-03-25T10:33:59;1.25;;;0.60;;
43327;SDS011;28923;45.412;10.852;2024-03-25T10:36:24;1.30;;;0.60;;
43327;SDS011;28923;45.412;10.852;2024-03-25T10:38:57;1.60;;;0.63;;
43327;SDS011;28923;45.412;10.852;2024-03-25T10:41:22;1.50;;;0.63;;
43327;SDS011;28923;45.412;10.852;2024-03-25T10:43:48;1.77;;;0.70;;
43327;SDS011;28923;45.412;10.852;2024-03-25T10:48:41;1.65;;;0.60;;
43327;SDS011;28923;45.412;10.852;2024-03-25T10:51:08;1.33;;;0.82;;
43327;SDS011;28923;45.412;10.852;2024-03-25T10:53:36;2.03;;;0.70;;
43327;SDS011;28923;45.412;10.852;2024-03-25T10:56:02;2.42;;;0.90;;
43327;SDS011;28923;45.412;10.852;2024-03-25T10:58:30;3.30;;;0.60;;
43327;SDS011;28923;45.412;10.852;2024-03-25T11:00:55;0.68;;;0.68;;
43327;SDS011;28923;45.412;10.852;2024-03-25T11:03:22;2.28;;;0.70;;
43327;SDS011;28923;45.412;10.852;2024-03-25T11:05:48;1.25;;;0.60;;
43327;SDS011;28923;45.412;10.852;2024-03-25T11:08:15;1.23;;;0.68;;
43327;SDS011;28923;45.412;10.852;2024-03-25T11:10:41;1.60;;;0.60;;
43327;SDS011;28923;45.412;10.852;2024-03-25T11:13:11;0.95;;;0.60;;
43327;SDS011;28923;45.412;10.852;2024-03-25T11:15:37;4.22;;;0.80;;
43327;SDS011;28923;45.412;10.852;2024-03-25T11:18:03;0.82;;;0.52;;
43327;SDS011;28923;45.412;10.852;2024-03-25T11:20:31;2.35;;;0.50;;
43327;SDS011;28923;45.412;10.852;2024-03-25T11:22:58;1.48;;;0.65;;
43327;SDS011;28923;45.412;10.852;2024-03-25T11:25:24;2.60;;;0.90;;
43327;SDS011;28923;45.412;10.852;2024-03-25T11:27:49;2.35;;;0.70;;
43327;SDS011;28923;45.412;10.852;2024-03-25T11:30:15;1.45;;;0.73;;
43327;SDS011;28923;45.412;10.852;2024-03-25T11:32:44;0.80;;;0.45;;
43327;SDS011;28923;45.412;10.852;2024-03-25T11:35:10;1.65;;;0.60;;
43327;SDS011;28923;45.412;10.852;2024-03-25T11:37:41;1.95;;;0.85;;
43327;SDS011;28923;45.412;10.852;2024-03-25T11:40:07;2.20;;;0.50;;
43327;SDS011;28923;45.412;10.852;2024-03-25T11:42:34;0.38;;;0.30;;
43327;SDS011;28923;45.412;10.852;2024-03-25T11:45:00;0.73;;;0.60;;
43327;SDS011;28923;45.412;10.852;2024-03-25T11:47:26;1.85;;;0.50;;
43327;SDS011;28923;45.412;10.852;2024-03-25T11:49:52;1.98;;;0.63;;
43327;SDS011;28923;45.412;10.852;2024-03-25T11:52:17;1.00;;;0.40;;
43327;SDS011;28923;45.412;10.852;2024-03-25T11:54:43;1.98;;;0.50;;
43327;SDS011;28923;45.412;10.852;2024-03-25T11:57:08;2.00;;;0.70;;
43327;SDS011;28923;45.412;10.852;2024-03-25T11:59:34;2.72;;;0.50;;
43327;SDS011;28923;45.412;10.852;2024-03-25T12:01:59;1.92;;;0.50;;
43327;SDS011;28923;45.412;10.852;2024-03-25T12:04:25;1.67;;;0.45;;
43327;SDS011;28923;45.412;10.852;2024-03-25T12:06:54;3.17;;;0.68;;
43327;SDS011;28923;45.412;10.852;2024-03-25T12:09:22;1.52;;;0.65;;
43327;SDS011;28923;45.412;10.852;2024-03-25T12:12:06;1.60;;;0.50;;
43327;SDS011;28923;45.412;10.852;2024-03-25T12:14:32;1.10;;;0.40;;
43327;SDS011;28923;45.412;10.852;2024-03-25T12:16:58;0.93;;;0.40;;
43327;SDS011;28923;45.412;10.852;2024-03-25T12:19:26;0.80;;;0.45;;
43327;SDS011;28923;45.412;10.852;2024-03-25T12:22:01;2.10;;;0.43;;
43327;SDS011;28923;45.412;10.852;2024-03-25T12:24:28;1.00;;;0.47;;
43327;SDS011;28923;45.412;10.852;2024-03-25T12:26:54;1.77;;;0.47;;
43327;SDS011;28923;45.412;10.852;2024-03-25T12:29:19;1.00;;;0.50;;
43327;SDS011;28923;45.412;10.852;2024-03-25T12:31:53;1.30;;;0.60;;
43327;SDS011;28923;45.412;10.852;2024-03-25T12:34:18;0.90;;;0.40;;
43327;SDS011;28923;45.412;10.852;2024-03-25T12:36:44;1.20;;;0.60;;
43327;SDS011;28923;45.412;10.852;2024-03-25T12:39:14;0.98;;;0.50;;
43327;SDS011;28923;45.412;10.852;2024-03-25T12:41:40;0.52;;;0.50;;
43327;SDS011;28923;45.412;10.852;2024-03-25T12:44:05;4.50;;;0.73;;
43327;SDS011;28923;45.412;10.852;2024-03-25T12:46:31;1.38;;;0.40;;
43327;SDS011;28923;45.412;10.852;2024-03-25T12:48:57;0.70;;;0.50;;
43327;SDS011;28923;45.412;10.852;2024-03-25T12:51:22;0.50;;;0.40;;
43327;SDS011;28923;45.412;10.852;2024-03-25T12:53:48;0.85;;;0.30;;
43327;SDS011;28923;45.412;10.852;2024-03-25T12:56:13;1.38;;;0.60;;
43327;SDS011;28923;45.412;10.852;2024-03-25T12:58:39;1.02;;;0.40;;
43327;SDS011;28923;45.412;10.852;2024-03-25T13:01:04;1.60;;;0.52;;
43327;SDS011;28923;45.412;10.852;2024-03-25T13:03:30;0.98;;;0.40;;
43327;SDS011;28923;45.412;10.852;2024-03-25T13:05:55;1.88;;;0.40;;
43327;SDS011;28923;45.412;10.852;2024-03-25T13:08:23;1.10;;;0.40;;
43327;SDS011;28923;45.412;10.852;2024-03-25T13:10:48;0.68;;;0.40;;
43327;SDS011;28923;45.412;10.852;2024-03-25T13:13:14;0.47;;;0.35;;
43327;SDS011;28923;45.412;10.852;2024-03-25T13:15:40;0.77;;;0.47;;
43327;SDS011;28923;45.412;10.852;2024-03-25T13:18:05;0.55;;;0.38;;
43327;SDS011;28923;45.412;10.852;2024-03-25T13:20:30;0.40;;;0.40;;
43327;SDS011;28923;45.412;10.852;2024-03-25T13:22:56;0.93;;;0.40;;
43327;SDS011;28923;45.412;10.852;2024-03-25T13:25:24;0.65;;;0.22;;
43327;SDS011;28923;45.412;10.852;2024-03-25T13:27:49;0.60;;;0.35;;
43327;SDS011;28923;45.412;10.852;2024-03-25T13:30:15;1.02;;;0.30;;
43327;SDS011;28923;45.412;10.852;2024-03-25T13:32:40;0.80;;;0.50;;
43327;SDS011;28923;45.412;10.852;2024-03-25T13:35:05;0.40;;;0.40;;
43327;SDS011;28923;45.412;10.852;2024-03-25T13:37:31;0.32;;;0.30;;
43327;SDS011;28923;45.412;10.852;2024-03-25T13:39:57;1.13;;;0.50;;
43327;SDS011;28923;45.412;10.852;2024-03-25T13:42:22;1.50;;;0.40;;
43327;SDS011;28923;45.412;10.852;2024-03-25T13:44:47;0.40;;;0.40;;
43327;SDS011;28923;45.412;10.852;2024-03-25T13:47:13;0.22;;;0.20;;
43327;SDS011;28923;45.412;10.852;2024-03-25T13:49:38;12.80;;;1.70;;
43327;SDS011;28923;45.412;10.852;2024-03-25T13:52:04;2.30;;;0.68;;
43327;SDS011;28923;45.412;10.852;2024-03-25T13:54:30;2.17;;;0.45;;
43327;SDS011;28923;45.412;10.852;2024-03-25T13:56:58;2.03;;;0.55;;
43327;SDS011;28923;45.412;10.852;2024-03-25T13:59:23;3.67;;;0.45;;
43327;SDS011;28923;45.412;10.852;2024-03-25T14:01:49;1.10;;;0.50;;
43327;SDS011;28923;45.412;10.852;2024-03-25T14:04:14;1.65;;;0.35;;
43327;SDS011;28923;45.412;10.852;2024-03-25T14:06:40;0.40;;;0.40;;
43327;SDS011;28923;45.412;10.852;2024-03-25T14:09:06;1.38;;;0.30;;
43327;SDS011;28923;45.412;10.852;2024-03-25T14:11:35;3.00;;;0.50;;
43327;SDS011;28923;45.412;10.852;2024-03-25T14:14:01;0.63;;;0.52;;
43327;SDS011;28923;45.412;10.852;2024-03-25T14:16:27;1.80;;;0.55;;
43327;SDS011;28923;45.412;10.852;2024-03-25T14:18:53;0.45;;;0.40;;
43327;SDS011;28923;45.412;10.852;2024-03-25T14:21:18;2.90;;;0.65;;
43327;SDS011;28923;45.412;10.852;2024-03-25T14:23:43;1.85;;;0.50;;
43327;SDS011;28923;45.412;10.852;2024-03-25T14:26:11;0.32;;;0.30;;
43327;SDS011;28923;45.412;10.852;2024-03-25T14:28:37;0.90;;;0.30;;